Southfield, Michigan
Current Conditions -  °F | °C
As of 3:35 AM on Thursday 27 Nov 2014 (Local Time) from KVLL Reporting Station
Overcast Overcast  
Wind Chill: 23°   Ceiling: 5000
Heat Index: 31°   Visibility: 10mi
Dew Point: 24°   Wind: 9mph
Humidity: 74%   Direction: 310°NW
Pressure: 30.1"   Gusts: 16mph
Location:  42.48°N, 83.24°W
Report Text: KVLL 270835Z AUTO 31008G14KT 10SM OVC050 00/M05 A3010 RMK AO2 T10051046
Loading
Personal Weather Stations






























Interactive Weather Map New forecast layout! Learn more

10-Day Weather Forecast

Advertisements
Track Severe Weather on mobile